sensor_id;sensor_type;location;lat;lon;timestamp;temperature;humidity
78876;DHT22;68253;52.506;5.486;2023-02-28T00:00:35;18.40;57.40
78876;DHT22;68253;52.506;5.486;2023-02-28T00:03:02;18.40;57.30
78876;DHT22;68253;52.506;5.486;2023-02-28T00:05:29;18.40;57.30
78876;DHT22;68253;52.506;5.486;2023-02-28T00:07:55;18.30;57.30
78876;DHT22;68253;52.506;5.486;2023-02-28T00:10:24;18.30;57.30
78876;DHT22;68253;52.506;5.486;2023-02-28T00:12:50;18.30;57.30
78876;DHT22;68253;52.506;5.486;2023-02-28T00:15:17;18.20;57.30
78876;DHT22;68253;52.506;5.486;2023-02-28T00:17:44;18.10;57.40
78876;DHT22;68253;52.506;5.486;2023-02-28T00:20:12;18.10;57.30
78876;DHT22;68253;52.506;5.486;2023-02-28T00:22:40;18.10;57.30
78876;DHT22;68253;52.506;5.486;2023-02-28T00:25:07;18.10;57.30
78876;DHT22;68253;52.506;5.486;2023-02-28T00:27:34;18.10;57.20
78876;DHT22;68253;52.506;5.486;2023-02-28T00:30:04;18.00;57.20
78876;DHT22;68253;52.506;5.486;2023-02-28T00:32:30;18.00;57.20
78876;DHT22;68253;52.506;5.486;2023-02-28T00:34:57;18.00;57.20
78876;DHT22;68253;52.506;5.486;2023-02-28T00:37:23;18.00;57.20
78876;DHT22;68253;52.506;5.486;2023-02-28T00:39:49;18.00;57.20
78876;DHT22;68253;52.506;5.486;2023-02-28T00:42:15;18.00;57.10
78876;DHT22;68253;52.506;5.486;2023-02-28T00:44:41;18.00;57.10
78876;DHT22;68253;52.506;5.486;2023-02-28T00:47:07;18.00;57.10
78876;DHT22;68253;52.506;5.486;2023-02-28T00:49:34;18.00;57.10
78876;DHT22;68253;52.506;5.486;2023-02-28T00:52:02;18.00;57.10
78876;DHT22;68253;52.506;5.486;2023-02-28T00:54:28;17.90;57.10
78876;DHT22;68253;52.506;5.486;2023-02-28T00:56:54;17.90;57.10
78876;DHT22;68253;52.506;5.486;2023-02-28T00:59:20;17.90;57.10
78876;DHT22;68253;52.506;5.486;2023-02-28T01:01:47;17.80;57.10
78876;DHT22;68253;52.506;5.486;2023-02-28T01:04:14;17.80;57.10
78876;DHT22;68253;52.506;5.486;2023-02-28T01:06:40;17.80;57.00
78876;DHT22;68253;52.506;5.486;2023-02-28T01:09:10;17.80;57.00
78876;DHT22;68253;52.506;5.486;2023-02-28T01:11:36;17.80;57.00
78876;DHT22;68253;52.506;5.486;2023-02-28T01:14:03;17.80;57.00
78876;DHT22;68253;52.506;5.486;2023-02-28T01:16:30;17.80;57.00
78876;DHT22;68253;52.506;5.486;2023-02-28T01:18:56;17.80;57.00
78876;DHT22;68253;52.506;5.486;2023-02-28T01:21:24;17.80;57.00
78876;DHT22;68253;52.506;5.486;2023-02-28T01:23:51;17.80;57.00
78876;DHT22;68253;52.506;5.486;2023-02-28T01:26:21;17.80;57.00
78876;DHT22;68253;52.506;5.486;2023-02-28T01:28:49;17.80;56.90
78876;DHT22;68253;52.506;5.486;2023-02-28T01:31:16;17.80;57.00
78876;DHT22;68253;52.506;5.486;2023-02-28T01:33:44;17.80;56.90
78876;DHT22;68253;52.506;5.486;2023-02-28T01:36:18;17.80;56.90
78876;DHT22;68253;52.506;5.486;2023-02-28T01:38:45;17.80;56.90
78876;DHT22;68253;52.506;5.486;2023-02-28T01:41:24;17.70;56.90
78876;DHT22;68253;52.506;5.486;2023-02-28T01:46:20;17.70;56.90
78876;DHT22;68253;52.506;5.486;2023-02-28T01:49:08;17.70;56.80
78876;DHT22;68253;52.506;5.486;2023-02-28T01:51:50;17.70;56.80
78876;DHT22;68253;52.506;5.486;2023-02-28T01:54:27;17.70;56.80
78876;DHT22;68253;52.506;5.486;2023-02-28T01:56:59;17.60;56.80
78876;DHT22;68253;52.506;5.486;2023-02-28T01:59:33;17.60;56.80
78876;DHT22;68253;52.506;5.486;2023-02-28T02:02:02;17.60;56.80
78876;DHT22;68253;52.506;5.486;2023-02-28T02:04:37;17.60;56.80
78876;DHT22;68253;52.506;5.486;2023-02-28T02:07:05;17.60;56.70
78876;DHT22;68253;52.506;5.486;2023-02-28T02:09:31;17.60;56.80
78876;DHT22;68253;52.506;5.486;2023-02-28T02:11:58;17.60;56.70
78876;DHT22;68253;52.506;5.486;2023-02-28T02:14:48;17.60;56.70
78876;DHT22;68253;52.506;5.486;2023-02-28T02:17:38;17.60;56.70
78876;DHT22;68253;52.506;5.486;2023-02-28T02:25:28;17.50;56.70
78876;DHT22;68253;52.506;5.486;2023-02-28T02:34:14;17.50;56.70
78876;DHT22;68253;52.506;5.486;2023-02-28T02:36:49;17.50;56.70
78876;DHT22;68253;52.506;5.486;2023-02-28T02:42:14;17.50;56.70
78876;DHT22;68253;52.506;5.486;2023-02-28T02:44:47;17.50;56.70
78876;DHT22;68253;52.506;5.486;2023-02-28T02:47:18;17.50;56.70
78876;DHT22;68253;52.506;5.486;2023-02-28T02:49:51;17.50;56.60
78876;DHT22;68253;52.506;5.486;2023-02-28T02:52:22;17.50;56.60
78876;DHT22;68253;52.506;5.486;2023-02-28T02:54:51;17.50;56.60
78876;DHT22;68253;52.506;5.486;2023-02-28T02:57:30;17.50;56.70
78876;DHT22;68253;52.506;5.486;2023-02-28T02:59:59;17.50;56.60
78876;DHT22;68253;52.506;5.486;2023-02-28T03:02:27;17.50;56.60
78876;DHT22;68253;52.506;5.486;2023-02-28T03:05:04;17.40;56.60
78876;DHT22;68253;52.506;5.486;2023-02-28T03:07:32;17.50;56.60
78876;DHT22;68253;52.506;5.486;2023-02-28T03:09:58;17.50;56.60
78876;DHT22;68253;52.506;5.486;2023-02-28T03:12:38;17.50;56.60
78876;DHT22;68253;52.506;5.486;2023-02-28T03:15:27;17.50;56.60
78876;DHT22;68253;52.506;5.486;2023-02-28T03:18:06;17.50;56.60
78876;DHT22;68253;52.506;5.486;2023-02-28T03:20:53;17.40;56.50
78876;DHT22;68253;52.506;5.486;2023-02-28T03:26:27;17.40;56.60
78876;DHT22;68253;52.506;5.486;2023-02-28T03:31:35;17.40;56.60
78876;DHT22;68253;52.506;5.486;2023-02-28T03:34:08;17.40;56.60
78876;DHT22;68253;52.506;5.486;2023-02-28T03:36:41;17.40;56.50
78876;DHT22;68253;52.506;5.486;2023-02-28T03:39:24;17.30;56.50
78876;DHT22;68253;52.506;5.486;2023-02-28T03:42:15;17.40;56.50
78876;DHT22;68253;52.506;5.486;2023-02-28T03:44:48;17.30;56.50
78876;DHT22;68253;52.506;5.486;2023-02-28T03:47:27;17.30;56.50
78876;DHT22;68253;52.506;5.486;2023-02-28T03:49:59;17.30;56.50
78876;DHT22;68253;52.506;5.486;2023-02-28T03:52:33;17.30;56.50
78876;DHT22;68253;52.506;5.486;2023-02-28T03:55:03;17.30;56.50
78876;DHT22;68253;52.506;5.486;2023-02-28T04:00:21;17.30;56.50
78876;DHT22;68253;52.506;5.486;2023-02-28T04:02:51;17.30;56.50
78876;DHT22;68253;52.506;5.486;2023-02-28T04:05:19;17.20;56.50
78876;DHT22;68253;52.506;5.486;2023-02-28T04:07:46;17.20;56.50
78876;DHT22;68253;52.506;5.486;2023-02-28T04:10:13;17.20;56.50
78876;DHT22;68253;52.506;5.486;2023-02-28T04:12:39;17.20;56.50
78876;DHT22;68253;52.506;5.486;2023-02-28T04:15:06;17.20;56.50
78876;DHT22;68253;52.506;5.486;2023-02-28T04:17:32;17.20;56.50
78876;DHT22;68253;52.506;5.486;2023-02-28T04:19:58;17.20;56.50
78876;DHT22;68253;52.506;5.486;2023-02-28T04:22:24;17.20;56.50
78876;DHT22;68253;52.506;5.486;2023-02-28T04:24:53;17.20;56.40
78876;DHT22;68253;52.506;5.486;2023-02-28T04:27:21;17.20;56.50
78876;DHT22;68253;52.506;5.486;2023-02-28T04:29:47;17.20;56.40
78876;DHT22;68253;52.506;5.486;2023-02-28T04:32:13;17.20;56.40
78876;DHT22;68253;52.506;5.486;2023-02-28T04:34:39;17.20;56.40
78876;DHT22;68253;52.506;5.486;2023-02-28T04:37:06;17.20;56.40
78876;DHT22;68253;52.506;5.486;2023-02-28T04:39:35;17.20;56.40
78876;DHT22;68253;52.506;5.486;2023-02-28T04:42:02;17.20;56.40
78876;DHT22;68253;52.506;5.486;2023-02-28T04:44:28;17.20;56.40
78876;DHT22;68253;52.506;5.486;2023-02-28T04:46:55;17.10;56.40
78876;DHT22;68253;52.506;5.486;2023-02-28T04:49:21;17.10;56.40
78876;DHT22;68253;52.506;5.486;2023-02-28T04:51:47;17.10;56.40
78876;DHT22;68253;52.506;5.486;2023-02-28T04:54:13;17.10;56.40
78876;DHT22;68253;52.506;5.486;2023-02-28T04:56:39;17.10;56.40
78876;DHT22;68253;52.506;5.486;2023-02-28T04:59:05;17.00;56.40
78876;DHT22;68253;52.506;5.486;2023-02-28T05:01:33;17.10;56.40
78876;DHT22;68253;52.506;5.486;2023-02-28T05:04:01;17.00;56.40
78876;DHT22;68253;52.506;5.486;2023-02-28T05:06:29;17.00;56.40
78876;DHT22;68253;52.506;5.486;2023-02-28T05:08:55;17.00;56.40
78876;DHT22;68253;52.506;5.486;2023-02-28T05:11:31;17.00;56.40
78876;DHT22;68253;52.506;5.486;2023-02-28T05:14:11;17.00;56.40
78876;DHT22;68253;52.506;5.486;2023-02-28T05:16:37;17.00;56.40
78876;DHT22;68253;52.506;5.486;2023-02-28T05:19:04;17.00;56.40
78876;DHT22;68253;52.506;5.486;2023-02-28T05:21:32;17.00;56.40
78876;DHT22;68253;52.506;5.486;2023-02-28T05:24:03;17.00;56.40
78876;DHT22;68253;52.506;5.486;2023-02-28T05:26:30;17.00;56.40
78876;DHT22;68253;52.506;5.486;2023-02-28T05:28:57;17.00;56.40
78876;DHT22;68253;52.506;5.486;2023-02-28T05:31:23;17.00;56.40
78876;DHT22;68253;52.506;5.486;2023-02-28T05:33:49;17.00;56.40
78876;DHT22;68253;52.506;5.486;2023-02-28T05:36:15;17.00;56.40
78876;DHT22;68253;52.506;5.486;2023-02-28T05:38:42;17.00;56.40
78876;DHT22;68253;52.506;5.486;2023-02-28T05:41:09;17.00;56.40
78876;DHT22;68253;52.506;5.486;2023-02-28T05:43:36;17.00;56.40
78876;DHT22;68253;52.506;5.486;2023-02-28T05:46:07;16.90;56.40
78876;DHT22;68253;52.506;5.486;2023-02-28T05:48:35;17.00;56.40
78876;DHT22;68253;52.506;5.486;2023-02-28T05:51:02;16.90;56.40
78876;DHT22;68253;52.506;5.486;2023-02-28T05:53:29;16.90;56.40
78876;DHT22;68253;52.506;5.486;2023-02-28T05:55:55;16.90;56.40
78876;DHT22;68253;52.506;5.486;2023-02-28T05:58:22;16.90;56.40
78876;DHT22;68253;52.506;5.486;2023-02-28T06:00:48;16.90;56.40
78876;DHT22;68253;52.506;5.486;2023-02-28T06:03:15;16.90;56.40
78876;DHT22;68253;52.506;5.486;2023-02-28T06:05:41;16.90;56.40
78876;DHT22;68253;52.506;5.486;2023-02-28T06:08:07;16.90;56.40
78876;DHT22;68253;52.506;5.486;2023-02-28T06:10:34;16.90;56.40
78876;DHT22;68253;52.506;5.486;2023-02-28T06:13:02;16.90;56.40
78876;DHT22;68253;52.506;5.486;2023-02-28T06:15:29;16.90;56.40
78876;DHT22;68253;52.506;5.486;2023-02-28T06:17:56;16.90;56.40
78876;DHT22;68253;52.506;5.486;2023-02-28T06:20:23;16.80;56.40
78876;DHT22;68253;52.506;5.486;2023-02-28T06:22:50;16.80;56.30
78876;DHT22;68253;52.506;5.486;2023-02-28T06:25:17;16.80;56.40
78876;DHT22;68253;52.506;5.486;2023-02-28T06:27:43;16.80;56.30
78876;DHT22;68253;52.506;5.486;2023-02-28T06:30:11;16.80;56.40
78876;DHT22;68253;52.506;5.486;2023-02-28T06:32:37;16.80;56.40
78876;DHT22;68253;52.506;5.486;2023-02-28T06:35:04;16.80;56.30
78876;DHT22;68253;52.506;5.486;2023-02-28T06:37:31;16.80;56.30
78876;DHT22;68253;52.506;5.486;2023-02-28T06:39:57;16.80;56.30
78876;DHT22;68253;52.506;5.486;2023-02-28T06:42:24;16.80;56.40
78876;DHT22;68253;52.506;5.486;2023-02-28T06:44:55;16.80;56.30
78876;DHT22;68253;52.506;5.486;2023-02-28T06:47:21;16.80;56.30
78876;DHT22;68253;52.506;5.486;2023-02-28T06:49:48;16.80;56.30
78876;DHT22;68253;52.506;5.486;2023-02-28T06:52:14;16.70;56.30
78876;DHT22;68253;52.506;5.486;2023-02-28T06:54:40;16.70;56.30
78876;DHT22;68253;52.506;5.486;2023-02-28T06:57:07;16.70;56.30
78876;DHT22;68253;52.506;5.486;2023-02-28T06:59:33;16.70;56.30
78876;DHT22;68253;52.506;5.486;2023-02-28T07:02:01;16.70;56.30
78876;DHT22;68253;52.506;5.486;2023-02-28T07:04:28;16.70;56.30
78876;DHT22;68253;52.506;5.486;2023-02-28T07:06:55;16.70;56.30
78876;DHT22;68253;52.506;5.486;2023-02-28T07:09:23;16.70;56.30
78876;DHT22;68253;52.506;5.486;2023-02-28T07:11:49;16.70;56.30
78876;DHT22;68253;52.506;5.486;2023-02-28T07:14:15;16.70;56.30
78876;DHT22;68253;52.506;5.486;2023-02-28T07:16:41;16.70;56.30
78876;DHT22;68253;52.506;5.486;2023-02-28T07:19:07;16.70;56.30
78876;DHT22;68253;52.506;5.486;2023-02-28T07:21:33;16.60;56.30
78876;DHT22;68253;52.506;5.486;2023-02-28T07:23:59;16.60;56.30
78876;DHT22;68253;52.506;5.486;2023-02-28T07:26:25;16.60;56.30
78876;DHT22;68253;52.506;5.486;2023-02-28T07:28:51;16.60;56.30
78876;DHT22;68253;52.506;5.486;2023-02-28T07:31:19;16.60;56.30
78876;DHT22;68253;52.506;5.486;2023-02-28T07:33:45;16.60;56.30
78876;DHT22;68253;52.506;5.486;2023-02-28T07:36:16;16.60;56.30
78876;DHT22;68253;52.506;5.486;2023-02-28T07:38:46;16.60;56.30
78876;DHT22;68253;52.506;5.486;2023-02-28T07:41:18;16.60;56.30
78876;DHT22;68253;52.506;5.486;2023-02-28T07:43:45;16.60;56.30
78876;DHT22;68253;52.506;5.486;2023-02-28T07:46:13;16.60;56.30
78876;DHT22;68253;52.506;5.486;2023-02-28T07:48:43;16.60;56.30
78876;DHT22;68253;52.506;5.486;2023-02-28T07:51:10;16.60;56.30
78876;DHT22;68253;52.506;5.486;2023-02-28T07:53:36;16.60;56.30
78876;DHT22;68253;52.506;5.486;2023-02-28T07:56:03;16.60;56.30
78876;DHT22;68253;52.506;5.486;2023-02-28T07:58:30;16.60;56.30
78876;DHT22;68253;52.506;5.486;2023-02-28T08:00:57;16.50;56.30
78876;DHT22;68253;52.506;5.486;2023-02-28T08:03:24;16.50;56.30
78876;DHT22;68253;52.506;5.486;2023-02-28T08:05:50;16.50;56.30
78876;DHT22;68253;52.506;5.486;2023-02-28T08:08:18;16.50;56.30
78876;DHT22;68253;52.506;5.486;2023-02-28T08:10:44;16.50;56.20
78876;DHT22;68253;52.506;5.486;2023-02-28T08:13:10;16.50;56.20
78876;DHT22;68253;52.506;5.486;2023-02-28T08:15:36;16.50;56.30
78876;DHT22;68253;52.506;5.486;2023-02-28T08:18:03;16.50;56.20
78876;DHT22;68253;52.506;5.486;2023-02-28T08:20:29;16.50;56.20
78876;DHT22;68253;52.506;5.486;2023-02-28T08:22:55;16.50;56.30
78876;DHT22;68253;52.506;5.486;2023-02-28T08:25:21;16.50;56.20
78876;DHT22;68253;52.506;5.486;2023-02-28T08:27:47;16.50;56.20
78876;DHT22;68253;52.506;5.486;2023-02-28T08:30:14;16.50;56.20
78876;DHT22;68253;52.506;5.486;2023-02-28T08:32:40;16.50;56.20
78876;DHT22;68253;52.506;5.486;2023-02-28T08:35:07;16.50;56.20
78876;DHT22;68253;52.506;5.486;2023-02-28T08:37:35;16.50;56.20
78876;DHT22;68253;52.506;5.486;2023-02-28T08:40:01;16.50;56.20
78876;DHT22;68253;52.506;5.486;2023-02-28T08:42:30;16.50;56.20
78876;DHT22;68253;52.506;5.486;2023-02-28T08:44:56;16.50;56.20
78876;DHT22;68253;52.506;5.486;2023-02-28T08:47:22;16.60;56.20
78876;DHT22;68253;52.506;5.486;2023-02-28T08:49:48;16.60;56.20
78876;DHT22;68253;52.506;5.486;2023-02-28T08:52:14;16.70;56.20
78876;DHT22;68253;52.506;5.486;2023-02-28T08:54:40;16.80;56.10
78876;DHT22;68253;52.506;5.486;2023-02-28T08:57:06;16.90;56.10
78876;DHT22;68253;52.506;5.486;2023-02-28T08:59:33;17.00;56.00
78876;DHT22;68253;52.506;5.486;2023-02-28T09:01:59;17.10;56.10
78876;DHT22;68253;52.506;5.486;2023-02-28T09:04:25;17.20;56.10
78876;DHT22;68253;52.506;5.486;2023-02-28T09:06:51;17.40;56.10
78876;DHT22;68253;52.506;5.486;2023-02-28T09:09:17;17.50;56.00
78876;DHT22;68253;52.506;5.486;2023-02-28T09:11:43;17.50;56.00
78876;DHT22;68253;52.506;5.486;2023-02-28T09:14:09;17.60;56.00
78876;DHT22;68253;52.506;5.486;2023-02-28T09:16:35;17.70;56.00
78876;DHT22;68253;52.506;5.486;2023-02-28T09:19:02;17.80;56.00
78876;DHT22;68253;52.506;5.486;2023-02-28T09:21:28;17.80;56.00
78876;DHT22;68253;52.506;5.486;2023-02-28T09:23:54;17.90;55.90
78876;DHT22;68253;52.506;5.486;2023-02-28T09:26:25;18.00;55.90
78876;DHT22;68253;52.506;5.486;2023-02-28T09:28:52;18.00;55.90
78876;DHT22;68253;52.506;5.486;2023-02-28T09:31:24;18.10;55.90
78876;DHT22;68253;52.506;5.486;2023-02-28T09:33:53;18.20;55.90
78876;DHT22;68253;52.506;5.486;2023-02-28T09:36:19;18.20;55.90
78876;DHT22;68253;52.506;5.486;2023-02-28T09:38:46;18.30;55.90
78876;DHT22;68253;52.506;5.486;2023-02-28T09:41:23;18.30;55.90
78876;DHT22;68253;52.506;5.486;2023-02-28T09:44:00;18.40;55.90
78876;DHT22;68253;52.506;5.486;2023-02-28T09:46:43;18.50;55.90
78876;DHT22;68253;52.506;5.486;2023-02-28T09:49:19;18.50;55.90
78876;DHT22;68253;52.506;5.486;2023-02-28T09:54:22;18.60;55.90
78876;DHT22;68253;52.506;5.486;2023-02-28T09:56:54;18.60;55.90
78876;DHT22;68253;52.506;5.486;2023-02-28T10:05:11;18.80;55.90
78876;DHT22;68253;52.506;5.486;2023-02-28T10:08:03;18.80;55.90
78876;DHT22;68253;52.506;5.486;2023-02-28T10:10:45;18.90;55.80
78876;DHT22;68253;52.506;5.486;2023-02-28T10:16:15;19.00;55.80
78876;DHT22;68253;52.506;5.486;2023-02-28T10:21:36;19.00;55.80
78876;DHT22;68253;52.506;5.486;2023-02-28T10:24:32;19.10;55.80
78876;DHT22;68253;52.506;5.486;2023-02-28T10:27:15;19.10;55.80
78876;DHT22;68253;52.506;5.486;2023-02-28T10:29:46;19.10;55.80
78876;DHT22;68253;52.506;5.486;2023-02-28T10:32:18;19.10;55.80
78876;DHT22;68253;52.506;5.486;2023-02-28T10:34:51;19.10;55.80
78876;DHT22;68253;52.506;5.486;2023-02-28T10:37:19;19.10;55.80
78876;DHT22;68253;52.506;5.486;2023-02-28T10:39:46;19.20;55.80
78876;DHT22;68253;52.506;5.486;2023-02-28T10:42:32;19.20;55.80
78876;DHT22;68253;52.506;5.486;2023-02-28T10:45:11;19.20;55.70
78876;DHT22;68253;52.506;5.486;2023-02-28T10:59:03;19.10;55.30
78876;DHT22;68253;52.506;5.486;2023-02-28T11:01:46;19.10;55.10
78876;DHT22;68253;52.506;5.486;2023-02-28T11:04:19;19.00;55.20
78876;DHT22;68253;52.506;5.486;2023-02-28T11:06:55;19.00;55.10
78876;DHT22;68253;52.506;5.486;2023-02-28T11:09:34;19.00;55.10
78876;DHT22;68253;52.506;5.486;2023-02-28T11:12:02;19.00;55.00
78876;DHT22;68253;52.506;5.486;2023-02-28T11:14:32;19.00;55.00
78876;DHT22;68253;52.506;5.486;2023-02-28T11:17:14;19.00;55.00
78876;DHT22;68253;52.506;5.486;2023-02-28T11:19:46;19.10;55.00
78876;DHT22;68253;52.506;5.486;2023-02-28T11:22:21;19.10;55.00
78876;DHT22;68253;52.506;5.486;2023-02-28T11:24:51;19.10;55.00
78876;DHT22;68253;52.506;5.486;2023-02-28T11:27:42;19.20;55.00
78876;DHT22;68253;52.506;5.486;2023-02-28T11:30:29;19.20;55.00
78876;DHT22;68253;52.506;5.486;2023-02-28T11:32:55;19.30;55.00
78876;DHT22;68253;52.506;5.486;2023-02-28T11:35:36;19.30;55.00
78876;DHT22;68253;52.506;5.486;2023-02-28T11:38:09;19.30;55.00
78876;DHT22;68253;52.506;5.486;2023-02-28T11:49:07;19.40;55.10
78876;DHT22;68253;52.506;5.486;2023-02-28T12:00:38;19.40;55.20
78876;DHT22;68253;52.506;5.486;2023-02-28T12:20:12;19.30;55.30
78876;DHT22;68253;52.506;5.486;2023-02-28T12:22:47;19.30;55.40
78876;DHT22;68253;52.506;5.486;2023-02-28T12:25:48;19.30;55.40
78876;DHT22;68253;52.506;5.486;2023-02-28T12:28:15;19.30;55.40
78876;DHT22;68253;52.506;5.486;2023-02-28T12:31:24;19.30;55.40
78876;DHT22;68253;52.506;5.486;2023-02-28T12:33:55;19.40;55.40
78876;DHT22;68253;52.506;5.486;2023-02-28T12:36:22;19.30;55.40
78876;DHT22;68253;52.506;5.486;2023-02-28T12:41:26;19.30;55.40
78876;DHT22;68253;52.506;5.486;2023-02-28T12:44:06;19.30;55.40
78876;DHT22;68253;52.506;5.486;2023-02-28T12:46:36;19.40;55.40
78876;DHT22;68253;52.506;5.486;2023-02-28T12:49:39;19.40;55.40
78876;DHT22;68253;52.506;5.486;2023-02-28T12:52:07;19.40;55.40
78876;DHT22;68253;52.506;5.486;2023-02-28T12:54:49;19.40;55.40
78876;DHT22;68253;52.506;5.486;2023-02-28T12:57:19;19.40;55.40
78876;DHT22;68253;52.506;5.486;2023-02-28T13:00:00;19.40;55.40
78876;DHT22;68253;52.506;5.486;2023-02-28T13:09:11;19.50;55.40
78876;DHT22;68253;52.506;5.486;2023-02-28T13:11:06;19.50;55.40
78876;DHT22;68253;52.506;5.486;2023-02-28T13:13:33;19.40;55.50
78876;DHT22;68253;52.506;5.486;2023-02-28T13:18:39;19.50;55.40
78876;DHT22;68253;52.506;5.486;2023-02-28T13:21:09;19.50;55.40
78876;DHT22;68253;52.506;5.486;2023-02-28T13:29:01;19.50;55.40
78876;DHT22;68253;52.506;5.486;2023-02-28T13:31:27;19.50;55.40
78876;DHT22;68253;52.506;5.486;2023-02-28T13:36:25;19.60;55.30
78876;DHT22;68253;52.506;5.486;2023-02-28T13:38:53;19.50;55.30
78876;DHT22;68253;52.506;5.486;2023-02-28T13:44:00;19.50;55.30
78876;DHT22;68253;52.506;5.486;2023-02-28T13:46:27;19.50;55.30
78876;DHT22;68253;52.506;5.486;2023-02-28T13:48:54;19.50;55.30
78876;DHT22;68253;52.506;5.486;2023-02-28T13:54:18;19.60;55.20
78876;DHT22;68253;52.506;5.486;2023-02-28T14:05:20;19.60;55.10
78876;DHT22;68253;52.506;5.486;2023-02-28T14:07:57;19.50;55.20
78876;DHT22;68253;52.506;5.486;2023-02-28T14:10:33;19.60;55.10
78876;DHT22;68253;52.506;5.486;2023-02-28T14:13:11;19.60;55.10
78876;DHT22;68253;52.506;5.486;2023-02-28T14:15:44;19.60;55.10
78876;DHT22;68253;52.506;5.486;2023-02-28T14:18:21;19.60;55.10
78876;DHT22;68253;52.506;5.486;2023-02-28T14:20:49;19.60;55.10
78876;DHT22;68253;52.506;5.486;2023-02-28T14:31:37;19.60;55.10
78876;DHT22;68253;52.506;5.486;2023-02-28T14:36:36;19.50;55.10
78876;DHT22;68253;52.506;5.486;2023-02-28T14:41:37;19.60;55.10
78876;DHT22;68253;52.506;5.486;2023-02-28T14:46:42;19.50;55.10
78876;DHT22;68253;52.506;5.486;2023-02-28T14:51:46;19.50;55.10
78876;DHT22;68253;52.506;5.486;2023-02-28T14:54:15;19.50;55.20
78876;DHT22;68253;52.506;5.486;2023-02-28T14:56:42;19.50;55.10
78876;DHT22;68253;52.506;5.486;2023-02-28T14:59:31;19.50;55.20
78876;DHT22;68253;52.506;5.486;2023-02-28T15:02:16;19.40;55.20
78876;DHT22;68253;52.506;5.486;2023-02-28T15:04:59;19.50;55.20
78876;DHT22;68253;52.506;5.486;2023-02-28T15:07:26;19.40;55.20
78876;DHT22;68253;52.506;5.486;2023-02-28T15:10:24;19.40;55.20
78876;DHT22;68253;52.506;5.486;2023-02-28T15:12:56;19.40;55.20
78876;DHT22;68253;52.506;5.486;2023-02-28T15:15:39;19.40;55.20
78876;DHT22;68253;52.506;5.486;2023-02-28T15:18:14;19.40;55.20
78876;DHT22;68253;52.506;5.486;2023-02-28T15:20:42;19.40;55.20
78876;DHT22;68253;52.506;5.486;2023-02-28T15:23:10;19.30;55.20
78876;DHT22;68253;52.506;5.486;2023-02-28T15:25:37;19.30;55.30
78876;DHT22;68253;52.506;5.486;2023-02-28T15:28:03;19.30;55.30
78876;DHT22;68253;52.506;5.486;2023-02-28T15:30:31;19.30;55.20
78876;DHT22;68253;52.506;5.486;2023-02-28T15:33:17;19.30;55.20
78876;DHT22;68253;52.506;5.486;2023-02-28T15:35:44;19.30;55.20
78876;DHT22;68253;52.506;5.486;2023-02-28T15:38:17;19.30;55.20
78876;DHT22;68253;52.506;5.486;2023-02-28T15:40:54;19.30;55.30
78876;DHT22;68253;52.506;5.486;2023-02-28T15:43:29;19.30;55.30
78876;DHT22;68253;52.506;5.486;2023-02-28T15:48:29;19.20;55.30
78876;DHT22;68253;52.506;5.486;2023-02-28T15:51:09;19.20;55.30
78876;DHT22;68253;52.506;5.486;2023-02-28T15:53:56;19.20;55.30
78876;DHT22;68253;52.506;5.486;2023-02-28T15:56:28;19.10;55.30
78876;DHT22;68253;52.506;5.486;2023-02-28T15:58:57;19.10;55.30
78876;DHT22;68253;52.506;5.486;2023-02-28T16:01:26;19.10;55.30
78876;DHT22;68253;52.506;5.486;2023-02-28T16:03:56;19.10;55.30
78876;DHT22;68253;52.506;5.486;2023-02-28T16:06:24;19.00;55.30
78876;DHT22;68253;52.506;5.486;2023-02-28T16:08:52;19.00;55.30
78876;DHT22;68253;52.506;5.486;2023-02-28T16:11:20;18.90;55.50
78876;DHT22;68253;52.506;5.486;2023-02-28T16:13:47;18.90;55.40
78876;DHT22;68253;52.506;5.486;2023-02-28T16:16:18;18.90;55.40
78876;DHT22;68253;52.506;5.486;2023-02-28T16:18:45;18.90;55.40
78876;DHT22;68253;52.506;5.486;2023-02-28T16:21:11;18.80;55.40
78876;DHT22;68253;52.506;5.486;2023-02-28T16:23:38;18.80;55.40
78876;DHT22;68253;52.506;5.486;2023-02-28T16:26:05;18.80;55.40
78876;DHT22;68253;52.506;5.486;2023-02-28T16:28:34;18.80;55.40
78876;DHT22;68253;52.506;5.486;2023-02-28T16:31:02;18.80;55.40
78876;DHT22;68253;52.506;5.486;2023-02-28T16:33:32;18.70;55.40
78876;DHT22;68253;52.506;5.486;2023-02-28T16:36:00;18.70;55.40
78876;DHT22;68253;52.506;5.486;2023-02-28T16:38:26;18.70;55.40
78876;DHT22;68253;52.506;5.486;2023-02-28T16:40:55;18.70;55.30
78876;DHT22;68253;52.506;5.486;2023-02-28T16:43:24;18.70;55.30
78876;DHT22;68253;52.506;5.486;2023-02-28T16:45:55;18.60;55.30
78876;DHT22;68253;52.506;5.486;2023-02-28T16:48:24;18.60;55.40
78876;DHT22;68253;52.506;5.486;2023-02-28T16:50:51;18.60;55.30
78876;DHT22;68253;52.506;5.486;2023-02-28T16:53:17;18.50;55.40
78876;DHT22;68253;52.506;5.486;2023-02-28T16:55:43;18.50;55.30
78876;DHT22;68253;52.506;5.486;2023-02-28T16:58:15;18.50;55.40
78876;DHT22;68253;52.506;5.486;2023-02-28T17:00:41;18.50;55.40
78876;DHT22;68253;52.506;5.486;2023-02-28T17:03:24;18.50;55.30
78876;DHT22;68253;52.506;5.486;2023-02-28T17:05:50;18.50;55.30
78876;DHT22;68253;52.506;5.486;2023-02-28T17:08:17;18.40;55.30
78876;DHT22;68253;52.506;5.486;2023-02-28T17:10:43;18.40;55.40
78876;DHT22;68253;52.506;5.486;2023-02-28T17:13:09;18.40;55.40
78876;DHT22;68253;52.506;5.486;2023-02-28T17:15:36;18.30;55.40
78876;DHT22;68253;52.506;5.486;2023-02-28T17:18:03;18.30;55.40
78876;DHT22;68253;52.506;5.486;2023-02-28T17:20:30;18.30;55.50
78876;DHT22;68253;52.506;5.486;2023-02-28T17:22:56;18.20;55.50
78876;DHT22;68253;52.506;5.486;2023-02-28T17:25:23;18.20;55.50
78876;DHT22;68253;52.506;5.486;2023-02-28T17:27:49;18.20;55.50
78876;DHT22;68253;52.506;5.486;2023-02-28T17:30:20;18.20;55.50
78876;DHT22;68253;52.506;5.486;2023-02-28T17:32:46;18.10;55.50
78876;DHT22;68253;52.506;5.486;2023-02-28T17:35:13;18.10;55.50
78876;DHT22;68253;52.506;5.486;2023-02-28T17:37:39;18.10;55.50
78876;DHT22;68253;52.506;5.486;2023-02-28T17:40:06;18.00;55.60
78876;DHT22;68253;52.506;5.486;2023-02-28T17:42:33;18.00;55.60
78876;DHT22;68253;52.506;5.486;2023-02-28T17:44:59;18.00;55.70
78876;DHT22;68253;52.506;5.486;2023-02-28T17:47:25;18.00;55.60
78876;DHT22;68253;52.506;5.486;2023-02-28T17:49:52;18.00;55.60
78876;DHT22;68253;52.506;5.486;2023-02-28T17:52:18;17.90;55.70
78876;DHT22;68253;52.506;5.486;2023-02-28T17:54:44;17.90;55.70
78876;DHT22;68253;52.506;5.486;2023-02-28T17:57:15;17.90;55.70
78876;DHT22;68253;52.506;5.486;2023-02-28T17:59:41;17.90;55.70
78876;DHT22;68253;52.506;5.486;2023-02-28T18:02:11;17.80;55.70
78876;DHT22;68253;52.506;5.486;2023-02-28T18:04:38;17.80;55.70
78876;DHT22;68253;52.506;5.486;2023-02-28T18:07:05;17.80;55.70